createdAt,value
2023-02-03T00:03:54.431Z,93.55075
2023-02-03T00:08:56.155Z,98.65412
2023-02-03T00:13:57.898Z,98.78061
2023-02-03T00:18:59.361Z,97.55303
2023-02-03T00:24:00.889Z,97.77703
2023-02-03T00:29:02.586Z,96.00342
2023-02-03T00:34:04.329Z,93.59607
2023-02-03T00:39:05.814Z,98.27521
2023-02-03T00:44:07.568Z,99.81744
2023-02-03T00:49:09.239Z,100
2023-02-03T00:54:11.042Z,96.80337
2023-02-03T00:59:12.848Z,98.91904
2023-02-03T01:04:14.426Z,100
2023-02-03T01:09:15.942Z,95.51588
2023-02-03T01:14:17.428Z,100
2023-02-03T01:19:19.117Z,100
2023-02-03T01:24:20.910Z,100
2023-02-03T01:29:22.607Z,100
2023-02-03T01:34:24.443Z,99.14014
2023-02-03T01:39:26.156Z,100
2023-02-03T01:44:27.713Z,100
2023-02-03T01:49:29.303Z,98.74962
2023-02-03T01:54:30.803Z,100
2023-02-03T01:59:32.465Z,100
2023-02-03T02:04:33.956Z,100
2023-02-03T02:09:35.667Z,100
2023-02-03T02:14:37.176Z,100
2023-02-03T02:19:38.935Z,100
2023-02-03T02:24:40.454Z,100
2023-02-03T02:29:42.080Z,100
2023-02-03T02:34:43.536Z,100
2023-02-03T02:39:45.463Z,99.60156
2023-02-03T02:44:47.139Z,100
2023-02-03T02:49:48.626Z,100
2023-02-03T02:54:50.309Z,100
2023-02-03T02:59:52.076Z,100
2023-02-03T03:04:53.602Z,100
2023-02-03T03:09:55.801Z,100
2023-02-03T03:14:57.258Z,100
2023-02-03T03:19:58.923Z,100
2023-02-03T03:25:01.027Z,100
2023-02-03T03:30:03.177Z,100
2023-02-03T03:35:05.144Z,100
2023-02-03T03:40:07.147Z,100
2023-02-03T03:45:09.037Z,100
2023-02-03T03:50:11.030Z,100
2023-02-03T03:55:13.082Z,100
2023-02-03T04:00:15.068Z,100
2023-02-03T04:05:16.553Z,100
2023-02-03T04:10:18.512Z,100
2023-02-03T04:15:20.548Z,100
2023-02-03T04:20:22.309Z,100
2023-02-03T04:25:24.276Z,100
2023-02-03T04:30:26.818Z,100
2023-02-03T04:35:28.573Z,100
2023-02-03T04:40:30.392Z,100
2023-02-03T04:45:32.388Z,100
2023-02-03T04:50:34.210Z,100
2023-02-03T04:55:36.391Z,100
2023-02-03T05:00:38.434Z,100
2023-02-03T05:05:40.102Z,100
2023-02-03T05:10:41.794Z,100
2023-02-03T05:15:43.641Z,100
2023-02-03T05:20:45.394Z,100
2023-02-03T05:25:46.881Z,100
2023-02-03T05:30:48.800Z,100
2023-02-03T05:35:50.281Z,100
2023-02-03T05:40:51.792Z,100
2023-02-03T05:45:53.423Z,100
2023-02-03T05:50:55.205Z,97.28607
2023-02-03T05:55:56.731Z,91.60903
2023-02-03T06:00:58.576Z,89.70438
2023-02-03T06:06:00.396Z,84.33248
2023-02-03T06:11:02.430Z,85.77426
2023-02-03T06:16:04.245Z,80.75683
2023-02-03T06:21:05.922Z,81.75702
2023-02-03T06:26:07.758Z,76.97982
2023-02-03T06:31:09.771Z,73.90341
2023-02-03T06:36:11.590Z,75.95524
2023-02-03T06:41:13.661Z,75.08893
2023-02-03T06:46:15.273Z,72.52843
2023-02-03T06:51:16.736Z,71.29672
2023-02-03T06:56:18.443Z,68.40797
2023-02-03T07:01:20.525Z,69.28024
2023-02-03T07:06:22.315Z,71.73465
2023-02-03T07:11:24.312Z,67.28785
2023-02-03T07:16:26.246Z,65.08981
2023-02-03T07:21:28.144Z,61.8528
2023-02-03T07:26:29.972Z,59.47036
2023-02-03T07:31:32.531Z,64.18721
2023-02-03T07:36:34.408Z,60.56061
2023-02-03T07:41:36.198Z,65.33611
2023-02-03T07:46:38.338Z,62.46364
2023-02-03T07:51:40.244Z,57.58892
2023-02-03T07:56:42.014Z,66.31127
2023-02-03T08:01:44.202Z,61.50577
2023-02-03T08:06:46.067Z,55.07221
2023-02-03T08:11:47.636Z,49.74827
2023-02-03T08:16:49.095Z,57.1825
2023-02-03T08:21:50.579Z,58.89208
2023-02-03T08:26:52.504Z,61.601
2023-02-03T08:31:54.334Z,63.34253
2023-02-03T08:36:56.074Z,56.97865
2023-02-03T08:41:57.918Z,55.03307
2023-02-03T08:46:59.507Z,49.38419
2023-02-03T08:52:01.121Z,49.8118
2023-02-03T08:57:02.699Z,46.14191
2023-02-03T09:02:04.378Z,52.95865
2023-02-03T09:07:05.825Z,52.08456
2023-02-03T09:12:07.652Z,52.84769
2023-02-03T09:17:09.635Z,49.83273
2023-02-03T09:22:11.315Z,48.18902
2023-02-03T09:27:13.370Z,48.86389
2023-02-03T09:32:15.944Z,47.85223
2023-02-03T09:37:17.694Z,45.797
2023-02-03T09:42:19.546Z,44.7364
2023-02-03T09:47:21.332Z,42.14519
2023-02-03T09:52:23.232Z,42.76863
2023-02-03T09:57:25.053Z,42.5489
2023-02-03T10:02:27.031Z,45.43992
2023-02-03T10:07:28.791Z,50.91083
2023-02-03T10:12:30.817Z,43.29855
2023-02-03T10:17:32.630Z,41.40256
2023-02-03T10:22:34.427Z,44.18886
2023-02-03T10:27:36.442Z,41.2992
2023-02-03T10:32:38.660Z,43.35802
2023-02-03T10:37:40.580Z,41.3982
2023-02-03T10:42:42.471Z,39.2733
2023-02-03T10:47:44.238Z,41.02653
2023-02-03T10:52:46.075Z,43.26959
2023-02-03T10:57:47.787Z,44.52687
2023-02-03T11:02:50.424Z,41.53257
2023-02-03T11:07:51.919Z,42.78275
2023-02-03T11:12:53.519Z,39.55648
2023-02-03T11:17:55.214Z,40.5452
2023-02-03T11:22:56.772Z,41.08822
2023-02-03T11:27:58.747Z,39.98086
2023-02-03T11:33:00.451Z,40.08952
2023-02-03T11:38:02.328Z,39.74788
2023-02-03T11:43:04.124Z,40.5563
2023-02-03T11:48:05.641Z,36.73427
2023-02-03T11:53:07.229Z,38.21019
2023-02-03T11:58:08.724Z,38.10268
2023-02-03T12:03:11.518Z,40.78178
2023-02-03T12:08:13.116Z,37.11317
2023-02-03T12:13:14.753Z,37.44821
2023-02-03T12:18:16.310Z,39.21137
2023-02-03T12:23:17.794Z,37.14493
2023-02-03T12:28:32.443Z,35.22479
2023-02-03T12:33:36.040Z,34.93018
2023-02-03T12:38:37.812Z,34.81243
2023-02-03T12:43:39.537Z,35.76639
2023-02-03T12:48:41.723Z,34.88576
2023-02-03T12:53:43.610Z,34.68344
2023-02-03T12:58:45.454Z,36.14497
2023-02-03T13:03:48.258Z,35.44823
2023-02-03T13:08:49.986Z,37.70846
2023-02-03T13:13:51.585Z,34.39528
2023-02-03T13:18:53.157Z,34.62087
2023-02-03T13:23:54.650Z,34.61888
2023-02-03T13:28:56.438Z,33.57726
2023-02-03T13:33:58.147Z,36.9144
2023-02-03T13:38:59.747Z,34.2679
2023-02-03T13:44:01.466Z,33.2488
2023-02-03T13:49:03.308Z,31.7491
2023-02-03T13:54:05.105Z,32.17997
2023-02-03T13:59:06.591Z,30.50652
2023-02-03T14:04:08.598Z,31.98147
2023-02-03T14:09:10.153Z,30.73766
2023-02-03T14:14:12.174Z,32.19805
2023-02-03T14:19:13.929Z,31.51457
2023-02-03T14:24:15.831Z,31.92121
2023-02-03T14:29:17.616Z,31.64005
2023-02-03T14:34:19.987Z,32.9418
2023-02-03T14:39:21.852Z,35.71996
2023-02-03T14:44:23.885Z,35.05293
2023-02-03T14:49:26.139Z,35.74038
2023-02-03T14:54:27.940Z,34.79667
2023-02-03T14:59:29.912Z,34.49166
2023-02-03T15:04:31.940Z,33.95591
2023-02-03T15:09:33.857Z,37.01949
2023-02-03T15:14:36.655Z,36.30849
2023-02-03T15:19:38.438Z,38.5305
2023-02-03T15:24:40.533Z,40.20866
2023-02-03T15:29:42.483Z,41.16597
2023-02-03T15:34:45.306Z,41.02619
2023-02-03T15:39:47.426Z,42.8915
2023-02-03T15:44:49.169Z,42.62391
2023-02-03T15:49:50.606Z,43.63421
2023-02-03T15:54:52.110Z,44.06021
2023-02-03T15:59:53.863Z,44.06205
2023-02-03T16:04:55.564Z,45.32105
2023-02-03T16:09:57.026Z,46.15303
2023-02-03T16:14:58.603Z,46.10521
2023-02-03T16:20:00.136Z,47.62573
2023-02-03T16:25:01.833Z,47.6488
2023-02-03T16:30:04.200Z,49.27195
2023-02-03T16:35:06.381Z,47.74942
2023-02-03T16:40:08.571Z,47.8801
2023-02-03T16:45:10.515Z,49.05204
2023-02-03T16:50:12.330Z,48.83455
2023-02-03T16:55:14.438Z,49.92347
2023-02-03T17:00:16.460Z,51.04085
2023-02-03T17:05:18.453Z,49.70135
2023-02-03T17:10:20.177Z,51.3314
2023-02-03T17:15:21.966Z,50.15364
2023-02-03T17:20:24.122Z,51.38246
2023-02-03T17:25:26.001Z,47.81259
2023-02-03T17:30:27.625Z,48.29028
2023-02-03T17:35:30.610Z,48.47226
2023-02-03T17:54:53.034Z,47.59685
2023-02-03T17:59:54.686Z,52.13639
2023-02-03T18:04:56.457Z,59.4466
2023-02-03T18:09:58.263Z,60.01864
2023-02-03T18:14:59.797Z,58.104
2023-02-03T18:20:01.666Z,57.84921
2023-02-03T18:25:03.316Z,57.23773
2023-02-03T18:30:04.872Z,57.87409
2023-02-03T18:35:06.551Z,59.7682
2023-02-03T18:40:08.264Z,60.57514
2023-02-03T18:45:10.136Z,61.72311
2023-02-03T18:50:12.037Z,60.58225
2023-02-03T18:55:13.829Z,60.61693
2023-02-03T19:00:15.730Z,58.81402
2023-02-03T19:05:17.585Z,59.83689
2023-02-03T19:10:19.798Z,59.82887
2023-02-03T19:15:21.310Z,62.46613
2023-02-03T19:20:22.770Z,64.14447
2023-02-03T19:25:24.272Z,61.61534
2023-02-03T19:30:25.863Z,62.28744
2023-02-03T19:35:27.876Z,63.16893
2023-02-03T19:40:30.288Z,61.69871
2023-02-03T19:45:32.317Z,66.00964
2023-02-03T19:50:34.148Z,66.65926
2023-02-03T19:55:35.823Z,69.74093
2023-02-03T20:00:37.625Z,71.9435
2023-02-03T20:05:39.458Z,75.84122
2023-02-03T20:10:41.434Z,76.46176
2023-02-03T20:15:43.269Z,79.12483
2023-02-03T20:20:45.169Z,80.75488
2023-02-03T20:25:46.772Z,84.52341
2023-02-03T20:30:48.601Z,86.90902
2023-02-03T20:35:50.511Z,82.57729
2023-02-03T20:40:52.739Z,86.1982
2023-02-03T20:45:54.312Z,86.51096
2023-02-03T20:50:55.882Z,87.04914
2023-02-03T20:55:57.398Z,92.6025
2023-02-03T21:00:59.097Z,92.99448
2023-02-03T21:06:00.722Z,93.6872
2023-02-03T21:11:02.378Z,97.69402
2023-02-03T21:16:04.157Z,98.27218
2023-02-03T21:21:05.756Z,95.07532
2023-02-03T21:26:07.430Z,96.0595
2023-02-03T21:31:09.248Z,93.14062
2023-02-03T21:36:11.317Z,94.80521
2023-02-03T21:41:13.378Z,91.29203
2023-02-03T21:46:15.334Z,91.98828
2023-02-03T21:51:17.413Z,97.12293
2023-02-03T21:56:19.388Z,94.37413
2023-02-03T22:01:21.569Z,95.08444
2023-02-03T22:06:23.488Z,89.2291
2023-02-03T22:11:26.015Z,89.94721
2023-02-03T22:16:28.088Z,89.19115
2023-02-03T22:21:30.035Z,89.55761
2023-02-03T22:26:32.333Z,90.94624
2023-02-03T22:31:35.280Z,92.59118
2023-02-03T22:36:37.362Z,90.17019
2023-02-03T22:41:39.672Z,91.17777
2023-02-03T22:46:41.541Z,92.24461
2023-02-03T22:51:43.447Z,92.38489
2023-02-03T22:56:45.285Z,93.33353
2023-02-03T23:01:47.120Z,91.14429
2023-02-03T23:06:49.117Z,92.65078
2023-02-03T23:11:51.212Z,94.19191
2023-02-03T23:16:52.718Z,97.39028
2023-02-03T23:21:54.197Z,97.25591
2023-02-03T23:26:55.645Z,98.87374
2023-02-03T23:31:57.202Z,97.8685
2023-02-03T23:36:58.876Z,99.1428
2023-02-03T23:42:01.399Z,100
2023-02-03T23:47:03.095Z,98.80062
2023-02-03T23:52:05.231Z,99.09611
2023-02-03T23:57:06.714Z,95.00291
